sensor_id;sensor_type;location;lat;lon;timestamp;temperature;humidity
14099;DHT22;7126;48.458;7.930;2022-07-01T00:00:36;18.30;99.90
14099;DHT22;7126;48.458;7.930;2022-07-01T00:03:02;18.30;99.90
14099;DHT22;7126;48.458;7.930;2022-07-01T00:05:27;18.20;99.90
14099;DHT22;7126;48.458;7.930;2022-07-01T00:07:53;18.30;99.90
14099;DHT22;7126;48.458;7.930;2022-07-01T00:10:18;18.30;99.90
14099;DHT22;7126;48.458;7.930;2022-07-01T00:12:45;18.30;99.90
14099;DHT22;7126;48.458;7.930;2022-07-01T00:15:12;18.30;99.90
14099;DHT22;7126;48.458;7.930;2022-07-01T00:17:38;18.30;99.90
14099;DHT22;7126;48.458;7.930;2022-07-01T00:20:05;18.30;99.90
14099;DHT22;7126;48.458;7.930;2022-07-01T00:22:33;18.30;99.90
14099;DHT22;7126;48.458;7.930;2022-07-01T00:24:59;18.30;99.90
14099;DHT22;7126;48.458;7.930;2022-07-01T00:27:25;18.30;99.90
14099;DHT22;7126;48.458;7.930;2022-07-01T00:29:50;18.40;99.90
14099;DHT22;7126;48.458;7.930;2022-07-01T00:32:16;18.30;99.90
14099;DHT22;7126;48.458;7.930;2022-07-01T00:34:42;18.30;99.90
14099;DHT22;7126;48.458;7.930;2022-07-01T00:37:07;18.30;99.90
14099;DHT22;7126;48.458;7.930;2022-07-01T00:39:33;18.20;99.90
14099;DHT22;7126;48.458;7.930;2022-07-01T00:42:01;18.20;99.90
14099;DHT22;7126;48.458;7.930;2022-07-01T00:44:27;18.20;99.90
14099;DHT22;7126;48.458;7.930;2022-07-01T00:46:53;18.20;99.90
14099;DHT22;7126;48.458;7.930;2022-07-01T00:49:19;18.20;99.90
14099;DHT22;7126;48.458;7.930;2022-07-01T00:51:45;18.20;99.90
14099;DHT22;7126;48.458;7.930;2022-07-01T00:54:11;18.20;99.90
14099;DHT22;7126;48.458;7.930;2022-07-01T00:56:37;18.20;99.90
14099;DHT22;7126;48.458;7.930;2022-07-01T00:59:03;18.10;99.90
14099;DHT22;7126;48.458;7.930;2022-07-01T01:01:29;18.20;99.90
14099;DHT22;7126;48.458;7.930;2022-07-01T01:03:55;18.20;99.90
14099;DHT22;7126;48.458;7.930;2022-07-01T01:06:21;18.20;99.90
14099;DHT22;7126;48.458;7.930;2022-07-01T01:08:47;18.20;99.90
14099;DHT22;7126;48.458;7.930;2022-07-01T01:11:15;18.30;99.90
14099;DHT22;7126;48.458;7.930;2022-07-01T01:13:41;18.30;99.90
14099;DHT22;7126;48.458;7.930;2022-07-01T01:16:07;18.30;99.90
14099;DHT22;7126;48.458;7.930;2022-07-01T01:18:33;18.30;99.90
14099;DHT22;7126;48.458;7.930;2022-07-01T01:21:00;18.30;99.90
14099;DHT22;7126;48.458;7.930;2022-07-01T01:23:26;18.20;99.90
14099;DHT22;7126;48.458;7.930;2022-07-01T01:25:52;18.20;99.90
14099;DHT22;7126;48.458;7.930;2022-07-01T01:28:18;18.20;99.90
14099;DHT22;7126;48.458;7.930;2022-07-01T01:30:43;18.30;99.90
14099;DHT22;7126;48.458;7.930;2022-07-01T01:33:09;18.30;99.90
14099;DHT22;7126;48.458;7.930;2022-07-01T01:35:37;18.30;99.90
14099;DHT22;7126;48.458;7.930;2022-07-01T01:38:02;18.40;99.90
14099;DHT22;7126;48.458;7.930;2022-07-01T01:40:28;18.40;99.90
14099;DHT22;7126;48.458;7.930;2022-07-01T01:42:54;18.40;99.90
14099;DHT22;7126;48.458;7.930;2022-07-01T01:45:19;18.40;99.90
14099;DHT22;7126;48.458;7.930;2022-07-01T01:47:45;18.40;99.90
14099;DHT22;7126;48.458;7.930;2022-07-01T01:50:12;18.30;99.90
14099;DHT22;7126;48.458;7.930;2022-07-01T01:52:39;18.30;99.90
14099;DHT22;7126;48.458;7.930;2022-07-01T01:55:09;18.30;99.90
14099;DHT22;7126;48.458;7.930;2022-07-01T01:57:34;18.30;99.90
14099;DHT22;7126;48.458;7.930;2022-07-01T02:00:00;18.40;99.90
14099;DHT22;7126;48.458;7.930;2022-07-01T02:02:26;18.30;99.90
14099;DHT22;7126;48.458;7.930;2022-07-01T02:04:52;18.30;99.90
14099;DHT22;7126;48.458;7.930;2022-07-01T02:07:18;18.20;99.90
14099;DHT22;7126;48.458;7.930;2022-07-01T02:09:43;18.10;99.90
14099;DHT22;7126;48.458;7.930;2022-07-01T02:12:09;18.00;99.90
14099;DHT22;7126;48.458;7.930;2022-07-01T02:14:35;17.90;99.90
14099;DHT22;7126;48.458;7.930;2022-07-01T02:17:00;17.90;99.90
14099;DHT22;7126;48.458;7.930;2022-07-01T02:19:26;17.90;99.90
14099;DHT22;7126;48.458;7.930;2022-07-01T02:21:52;17.90;99.90
14099;DHT22;7126;48.458;7.930;2022-07-01T02:24:18;17.90;99.90
14099;DHT22;7126;48.458;7.930;2022-07-01T02:26:44;17.90;99.90
14099;DHT22;7126;48.458;7.930;2022-07-01T02:29:10;17.90;99.90
14099;DHT22;7126;48.458;7.930;2022-07-01T02:31:35;17.90;99.90
14099;DHT22;7126;48.458;7.930;2022-07-01T02:34:01;17.80;99.90
14099;DHT22;7126;48.458;7.930;2022-07-01T02:36:27;17.80;99.90
14099;DHT22;7126;48.458;7.930;2022-07-01T02:38:52;17.80;99.90
14099;DHT22;7126;48.458;7.930;2022-07-01T02:41:18;17.70;99.90
14099;DHT22;7126;48.458;7.930;2022-07-01T02:43:44;17.70;99.90
14099;DHT22;7126;48.458;7.930;2022-07-01T02:46:09;17.70;99.90
14099;DHT22;7126;48.458;7.930;2022-07-01T02:48:35;17.70;99.90
14099;DHT22;7126;48.458;7.930;2022-07-01T02:51:00;17.70;99.90
14099;DHT22;7126;48.458;7.930;2022-07-01T02:53:26;17.70;99.90
14099;DHT22;7126;48.458;7.930;2022-07-01T02:55:52;17.60;99.90
14099;DHT22;7126;48.458;7.930;2022-07-01T02:58:17;17.50;99.90
14099;DHT22;7126;48.458;7.930;2022-07-01T03:00:43;17.50;99.90
14099;DHT22;7126;48.458;7.930;2022-07-01T03:03:08;17.50;99.90
14099;DHT22;7126;48.458;7.930;2022-07-01T03:05:34;17.50;99.90
14099;DHT22;7126;48.458;7.930;2022-07-01T03:08:00;17.50;99.90
14099;DHT22;7126;48.458;7.930;2022-07-01T03:10:25;17.60;99.90
14099;DHT22;7126;48.458;7.930;2022-07-01T03:12:52;17.50;99.90
14099;DHT22;7126;48.458;7.930;2022-07-01T03:15:17;17.60;99.90
14099;DHT22;7126;48.458;7.930;2022-07-01T03:17:45;17.60;99.90
14099;DHT22;7126;48.458;7.930;2022-07-01T03:20:13;17.60;99.90
14099;DHT22;7126;48.458;7.930;2022-07-01T03:22:40;17.60;99.90
14099;DHT22;7126;48.458;7.930;2022-07-01T03:25:07;17.50;99.90
14099;DHT22;7126;48.458;7.930;2022-07-01T03:27:34;17.50;99.90
14099;DHT22;7126;48.458;7.930;2022-07-01T03:30:00;17.50;99.90
14099;DHT22;7126;48.458;7.930;2022-07-01T03:32:26;17.50;99.90
14099;DHT22;7126;48.458;7.930;2022-07-01T03:34:53;17.50;99.90
14099;DHT22;7126;48.458;7.930;2022-07-01T03:37:19;17.50;99.90
14099;DHT22;7126;48.458;7.930;2022-07-01T03:39:46;17.50;99.90
14099;DHT22;7126;48.458;7.930;2022-07-01T03:42:11;17.30;99.90
14099;DHT22;7126;48.458;7.930;2022-07-01T03:44:38;17.30;99.90
14099;DHT22;7126;48.458;7.930;2022-07-01T03:47:05;17.30;99.90
14099;DHT22;7126;48.458;7.930;2022-07-01T03:49:34;17.30;99.90
14099;DHT22;7126;48.458;7.930;2022-07-01T03:52:01;17.30;99.90
14099;DHT22;7126;48.458;7.930;2022-07-01T03:54:26;17.40;99.90
14099;DHT22;7126;48.458;7.930;2022-07-01T03:57:15;17.30;99.90
14099;DHT22;7126;48.458;7.930;2022-07-01T03:59:41;17.30;99.90
14099;DHT22;7126;48.458;7.930;2022-07-01T04:02:07;17.30;99.90
14099;DHT22;7126;48.458;7.930;2022-07-01T04:04:34;17.40;99.90
14099;DHT22;7126;48.458;7.930;2022-07-01T04:07:02;17.40;99.90
14099;DHT22;7126;48.458;7.930;2022-07-01T04:09:29;17.30;99.90
14099;DHT22;7126;48.458;7.930;2022-07-01T04:11:56;17.30;99.90
14099;DHT22;7126;48.458;7.930;2022-07-01T04:14:22;17.30;99.90
14099;DHT22;7126;48.458;7.930;2022-07-01T04:16:49;17.40;99.90
14099;DHT22;7126;48.458;7.930;2022-07-01T04:19:16;17.40;99.90
14099;DHT22;7126;48.458;7.930;2022-07-01T04:21:42;17.40;99.90
14099;DHT22;7126;48.458;7.930;2022-07-01T04:24:26;17.40;99.90
14099;DHT22;7126;48.458;7.930;2022-07-01T04:26:54;17.30;99.90
14099;DHT22;7126;48.458;7.930;2022-07-01T04:29:20;17.30;99.90
14099;DHT22;7126;48.458;7.930;2022-07-01T04:31:46;17.40;99.90
14099;DHT22;7126;48.458;7.930;2022-07-01T04:34:11;17.40;99.90
14099;DHT22;7126;48.458;7.930;2022-07-01T04:36:37;17.50;99.90
14099;DHT22;7126;48.458;7.930;2022-07-01T04:39:04;17.50;99.90
14099;DHT22;7126;48.458;7.930;2022-07-01T04:41:30;17.40;99.90
14099;DHT22;7126;48.458;7.930;2022-07-01T04:44:16;17.30;99.90
14099;DHT22;7126;48.458;7.930;2022-07-01T04:46:41;17.30;99.90
14099;DHT22;7126;48.458;7.930;2022-07-01T04:49:07;17.40;99.90
14099;DHT22;7126;48.458;7.930;2022-07-01T04:51:33;17.40;99.90
14099;DHT22;7126;48.458;7.930;2022-07-01T04:54:01;17.50;99.90
14099;DHT22;7126;48.458;7.930;2022-07-01T04:56:27;17.50;99.90
14099;DHT22;7126;48.458;7.930;2022-07-01T04:58:57;17.50;99.90
14099;DHT22;7126;48.458;7.930;2022-07-01T05:01:23;17.50;99.90
14099;DHT22;7126;48.458;7.930;2022-07-01T05:03:49;17.40;99.90
14099;DHT22;7126;48.458;7.930;2022-07-01T05:06:15;17.50;99.90
14099;DHT22;7126;48.458;7.930;2022-07-01T05:08:41;17.50;99.90
14099;DHT22;7126;48.458;7.930;2022-07-01T05:11:06;17.60;99.90
14099;DHT22;7126;48.458;7.930;2022-07-01T05:13:32;17.60;99.90
14099;DHT22;7126;48.458;7.930;2022-07-01T05:15:59;17.60;99.90
14099;DHT22;7126;48.458;7.930;2022-07-01T05:18:25;17.50;99.90
14099;DHT22;7126;48.458;7.930;2022-07-01T05:21:09;17.50;99.90
14099;DHT22;7126;48.458;7.930;2022-07-01T05:23:53;17.50;99.90
14099;DHT22;7126;48.458;7.930;2022-07-01T05:26:18;17.50;99.90
14099;DHT22;7126;48.458;7.930;2022-07-01T05:28:45;17.60;99.90
14099;DHT22;7126;48.458;7.930;2022-07-01T05:31:11;17.50;99.90
14099;DHT22;7126;48.458;7.930;2022-07-01T05:33:37;17.50;99.90
14099;DHT22;7126;48.458;7.930;2022-07-01T05:36:02;17.50;99.90
14099;DHT22;7126;48.458;7.930;2022-07-01T05:38:28;17.50;99.90
14099;DHT22;7126;48.458;7.930;2022-07-01T05:40:53;17.50;99.90
14099;DHT22;7126;48.458;7.930;2022-07-01T05:43:19;17.50;99.90
14099;DHT22;7126;48.458;7.930;2022-07-01T05:45:46;17.40;99.90
14099;DHT22;7126;48.458;7.930;2022-07-01T05:48:11;17.50;99.90
14099;DHT22;7126;48.458;7.930;2022-07-01T05:50:37;17.50;99.90
14099;DHT22;7126;48.458;7.930;2022-07-01T05:53:02;17.50;99.90
14099;DHT22;7126;48.458;7.930;2022-07-01T05:55:28;17.50;99.90
14099;DHT22;7126;48.458;7.930;2022-07-01T05:57:54;17.50;99.90
14099;DHT22;7126;48.458;7.930;2022-07-01T06:00:19;17.40;99.90
14099;DHT22;7126;48.458;7.930;2022-07-01T06:02:45;17.30;99.90
14099;DHT22;7126;48.458;7.930;2022-07-01T06:05:11;17.30;99.90
14099;DHT22;7126;48.458;7.930;2022-07-01T06:07:39;17.30;99.90
14099;DHT22;7126;48.458;7.930;2022-07-01T06:10:09;17.30;99.90
14099;DHT22;7126;48.458;7.930;2022-07-01T06:12:38;17.30;99.90
14099;DHT22;7126;48.458;7.930;2022-07-01T06:15:06;17.40;99.90
14099;DHT22;7126;48.458;7.930;2022-07-01T06:17:34;17.40;99.90
14099;DHT22;7126;48.458;7.930;2022-07-01T06:19:59;17.40;99.90
14099;DHT22;7126;48.458;7.930;2022-07-01T06:22:25;17.40;99.90
14099;DHT22;7126;48.458;7.930;2022-07-01T06:24:50;17.40;99.90
14099;DHT22;7126;48.458;7.930;2022-07-01T06:27:16;17.30;99.90
14099;DHT22;7126;48.458;7.930;2022-07-01T06:29:41;17.30;99.90
14099;DHT22;7126;48.458;7.930;2022-07-01T06:32:07;17.40;99.90
14099;DHT22;7126;48.458;7.930;2022-07-01T06:34:35;17.40;99.90
14099;DHT22;7126;48.458;7.930;2022-07-01T06:37:01;17.40;99.90
14099;DHT22;7126;48.458;7.930;2022-07-01T06:39:27;17.40;99.90
14099;DHT22;7126;48.458;7.930;2022-07-01T06:41:54;17.40;99.90
14099;DHT22;7126;48.458;7.930;2022-07-01T06:44:19;17.40;99.90
14099;DHT22;7126;48.458;7.930;2022-07-01T06:46:46;17.40;99.90
14099;DHT22;7126;48.458;7.930;2022-07-01T06:49:11;17.40;99.90
14099;DHT22;7126;48.458;7.930;2022-07-01T06:51:37;17.40;99.90
14099;DHT22;7126;48.458;7.930;2022-07-01T06:54:03;17.30;99.90
14099;DHT22;7126;48.458;7.930;2022-07-01T06:56:28;17.20;99.90
14099;DHT22;7126;48.458;7.930;2022-07-01T06:58:54;17.20;99.90
14099;DHT22;7126;48.458;7.930;2022-07-01T07:01:20;17.10;99.90
14099;DHT22;7126;48.458;7.930;2022-07-01T07:03:46;17.10;99.90
14099;DHT22;7126;48.458;7.930;2022-07-01T07:06:11;17.10;99.90
14099;DHT22;7126;48.458;7.930;2022-07-01T07:08:37;17.10;99.90
14099;DHT22;7126;48.458;7.930;2022-07-01T07:11:03;17.00;99.90
14099;DHT22;7126;48.458;7.930;2022-07-01T07:13:29;17.00;99.90
14099;DHT22;7126;48.458;7.930;2022-07-01T07:15:55;17.00;99.90
14099;DHT22;7126;48.458;7.930;2022-07-01T07:18:21;17.00;99.90
14099;DHT22;7126;48.458;7.930;2022-07-01T07:20:46;17.00;99.90
14099;DHT22;7126;48.458;7.930;2022-07-01T07:23:15;17.00;99.90
14099;DHT22;7126;48.458;7.930;2022-07-01T07:25:41;17.00;99.90
14099;DHT22;7126;48.458;7.930;2022-07-01T07:28:07;17.00;99.90
14099;DHT22;7126;48.458;7.930;2022-07-01T07:30:32;17.00;99.90
14099;DHT22;7126;48.458;7.930;2022-07-01T07:32:58;17.00;99.90
14099;DHT22;7126;48.458;7.930;2022-07-01T07:35:24;17.10;99.90
14099;DHT22;7126;48.458;7.930;2022-07-01T07:37:49;17.20;99.90
14099;DHT22;7126;48.458;7.930;2022-07-01T07:40:15;17.20;99.90
14099;DHT22;7126;48.458;7.930;2022-07-01T07:42:45;17.30;99.90
14099;DHT22;7126;48.458;7.930;2022-07-01T07:45:11;17.40;99.90
14099;DHT22;7126;48.458;7.930;2022-07-01T07:47:44;17.50;99.90
14099;DHT22;7126;48.458;7.930;2022-07-01T07:50:11;17.50;99.90
14099;DHT22;7126;48.458;7.930;2022-07-01T07:52:38;17.40;99.90
14099;DHT22;7126;48.458;7.930;2022-07-01T07:55:05;17.40;99.90
14099;DHT22;7126;48.458;7.930;2022-07-01T07:57:31;17.40;99.90
14099;DHT22;7126;48.458;7.930;2022-07-01T07:59:56;17.40;99.90
14099;DHT22;7126;48.458;7.930;2022-07-01T08:02:22;17.40;99.90
14099;DHT22;7126;48.458;7.930;2022-07-01T08:04:48;17.50;99.90
14099;DHT22;7126;48.458;7.930;2022-07-01T08:07:13;17.60;99.90
14099;DHT22;7126;48.458;7.930;2022-07-01T08:09:39;17.80;99.90
14099;DHT22;7126;48.458;7.930;2022-07-01T08:12:07;17.90;99.90
14099;DHT22;7126;48.458;7.930;2022-07-01T08:14:33;17.90;99.90
14099;DHT22;7126;48.458;7.930;2022-07-01T08:16:58;17.80;99.90
14099;DHT22;7126;48.458;7.930;2022-07-01T08:19:24;17.80;99.90
14099;DHT22;7126;48.458;7.930;2022-07-01T08:21:50;17.70;99.90
14099;DHT22;7126;48.458;7.930;2022-07-01T08:24:15;17.70;99.90
14099;DHT22;7126;48.458;7.930;2022-07-01T08:26:41;17.70;99.90
14099;DHT22;7126;48.458;7.930;2022-07-01T08:29:06;17.70;99.90
14099;DHT22;7126;48.458;7.930;2022-07-01T08:31:32;17.60;99.90
14099;DHT22;7126;48.458;7.930;2022-07-01T08:33:58;17.70;99.90
14099;DHT22;7126;48.458;7.930;2022-07-01T08:36:23;17.70;99.90
14099;DHT22;7126;48.458;7.930;2022-07-01T08:38:49;17.80;99.90
14099;DHT22;7126;48.458;7.930;2022-07-01T08:41:15;17.90;99.90
14099;DHT22;7126;48.458;7.930;2022-07-01T08:43:41;18.00;99.90
14099;DHT22;7126;48.458;7.930;2022-07-01T08:46:07;18.00;99.90
14099;DHT22;7126;48.458;7.930;2022-07-01T08:48:33;18.00;99.90
14099;DHT22;7126;48.458;7.930;2022-07-01T08:50:59;17.90;99.90
14099;DHT22;7126;48.458;7.930;2022-07-01T08:53:30;18.00;99.90
14099;DHT22;7126;48.458;7.930;2022-07-01T08:55:56;18.10;99.90
14099;DHT22;7126;48.458;7.930;2022-07-01T08:58:41;18.20;99.90
14099;DHT22;7126;48.458;7.930;2022-07-01T09:01:17;18.30;99.90
14099;DHT22;7126;48.458;7.930;2022-07-01T09:03:44;18.40;99.90
14099;DHT22;7126;48.458;7.930;2022-07-01T09:06:13;18.60;99.90
14099;DHT22;7126;48.458;7.930;2022-07-01T09:08:40;18.80;99.90
14099;DHT22;7126;48.458;7.930;2022-07-01T09:13:38;19.20;99.90
14099;DHT22;7126;48.458;7.930;2022-07-01T09:16:11;19.20;99.90
14099;DHT22;7126;48.458;7.930;2022-07-01T09:18:38;19.40;99.90
14099;DHT22;7126;48.458;7.930;2022-07-01T09:21:07;19.70;99.90
14099;DHT22;7126;48.458;7.930;2022-07-01T09:23:33;20.00;99.90
14099;DHT22;7126;48.458;7.930;2022-07-01T09:25:59;20.00;99.90
14099;DHT22;7126;48.458;7.930;2022-07-01T09:28:26;19.80;99.90
14099;DHT22;7126;48.458;7.930;2022-07-01T09:30:56;19.80;99.90
14099;DHT22;7126;48.458;7.930;2022-07-01T09:33:28;19.70;99.90
14099;DHT22;7126;48.458;7.930;2022-07-01T09:35:56;19.50;99.90
14099;DHT22;7126;48.458;7.930;2022-07-01T09:38:24;19.40;99.90
14099;DHT22;7126;48.458;7.930;2022-07-01T09:43:23;19.10;99.90
14099;DHT22;7126;48.458;7.930;2022-07-01T09:45:55;18.90;99.90
14099;DHT22;7126;48.458;7.930;2022-07-01T09:48:46;18.90;99.90
14099;DHT22;7126;48.458;7.930;2022-07-01T09:51:12;18.90;99.90
14099;DHT22;7126;48.458;7.930;2022-07-01T09:53:38;18.80;99.90
14099;DHT22;7126;48.458;7.930;2022-07-01T09:56:05;18.80;99.90
14099;DHT22;7126;48.458;7.930;2022-07-01T09:58:30;18.60;99.90
14099;DHT22;7126;48.458;7.930;2022-07-01T10:01:00;18.60;99.90
14099;DHT22;7126;48.458;7.930;2022-07-01T10:03:27;18.80;99.90
14099;DHT22;7126;48.458;7.930;2022-07-01T10:05:57;19.00;99.90
14099;DHT22;7126;48.458;7.930;2022-07-01T10:13:43;19.30;99.90
14099;DHT22;7126;48.458;7.930;2022-07-01T10:16:10;19.20;99.90
14099;DHT22;7126;48.458;7.930;2022-07-01T10:18:36;19.20;99.90
14099;DHT22;7126;48.458;7.930;2022-07-01T10:21:02;19.40;99.90
14099;DHT22;7126;48.458;7.930;2022-07-01T10:23:43;19.60;99.90
14099;DHT22;7126;48.458;7.930;2022-07-01T10:26:09;19.80;99.90
14099;DHT22;7126;48.458;7.930;2022-07-01T10:28:40;19.90;99.90
14099;DHT22;7126;48.458;7.930;2022-07-01T10:31:10;20.20;99.90
14099;DHT22;7126;48.458;7.930;2022-07-01T10:44:09;21.20;99.90
14099;DHT22;7126;48.458;7.930;2022-07-01T10:49:16;21.00;99.90
14099;DHT22;7126;48.458;7.930;2022-07-01T10:51:47;20.90;99.90
14099;DHT22;7126;48.458;7.930;2022-07-01T11:02:33;22.10;99.90
14099;DHT22;7126;48.458;7.930;2022-07-01T11:07:28;22.30;99.90
14099;DHT22;7126;48.458;7.930;2022-07-01T11:09:55;22.50;99.90
14099;DHT22;7126;48.458;7.930;2022-07-01T11:12:22;22.60;99.90
14099;DHT22;7126;48.458;7.930;2022-07-01T11:14:51;22.60;99.90
14099;DHT22;7126;48.458;7.930;2022-07-01T11:17:19;22.30;99.90
14099;DHT22;7126;48.458;7.930;2022-07-01T11:19:48;22.10;99.90
14099;DHT22;7126;48.458;7.930;2022-07-01T11:22:22;21.90;99.90
14099;DHT22;7126;48.458;7.930;2022-07-01T11:24:56;21.70;99.90
14099;DHT22;7126;48.458;7.930;2022-07-01T11:27:22;21.50;99.90
14099;DHT22;7126;48.458;7.930;2022-07-01T11:29:52;21.50;99.90
14099;DHT22;7126;48.458;7.930;2022-07-01T11:32:26;21.50;99.90
14099;DHT22;7126;48.458;7.930;2022-07-01T11:34:52;21.30;99.90
14099;DHT22;7126;48.458;7.930;2022-07-01T11:37:18;21.20;99.90
14099;DHT22;7126;48.458;7.930;2022-07-01T11:40:11;21.10;99.90
14099;DHT22;7126;48.458;7.930;2022-07-01T11:42:37;20.90;99.90
14099;DHT22;7126;48.458;7.930;2022-07-01T11:45:04;21.00;99.90
14099;DHT22;7126;48.458;7.930;2022-07-01T11:47:30;21.10;99.90
14099;DHT22;7126;48.458;7.930;2022-07-01T11:49:57;21.20;99.90
14099;DHT22;7126;48.458;7.930;2022-07-01T11:52:23;21.10;99.90
14099;DHT22;7126;48.458;7.930;2022-07-01T11:54:56;21.10;99.90
14099;DHT22;7126;48.458;7.930;2022-07-01T11:57:25;21.20;99.90
14099;DHT22;7126;48.458;7.930;2022-07-01T11:59:54;21.20;99.90
14099;DHT22;7126;48.458;7.930;2022-07-01T12:02:22;21.30;99.90
14099;DHT22;7126;48.458;7.930;2022-07-01T12:04:49;21.40;99.90
14099;DHT22;7126;48.458;7.930;2022-07-01T12:07:15;21.40;99.90
14099;DHT22;7126;48.458;7.930;2022-07-01T12:09:42;21.80;99.90
14099;DHT22;7126;48.458;7.930;2022-07-01T12:12:15;22.30;99.90
14099;DHT22;7126;48.458;7.930;2022-07-01T12:14:49;22.80;99.90
14099;DHT22;7126;48.458;7.930;2022-07-01T12:17:16;23.10;99.90
14099;DHT22;7126;48.458;7.930;2022-07-01T12:19:43;23.10;99.90
14099;DHT22;7126;48.458;7.930;2022-07-01T12:22:14;23.00;99.90
14099;DHT22;7126;48.458;7.930;2022-07-01T12:24:41;23.20;99.90
14099;DHT22;7126;48.458;7.930;2022-07-01T12:27:08;23.50;99.90
14099;DHT22;7126;48.458;7.930;2022-07-01T12:32:11;23.80;99.90
14099;DHT22;7126;48.458;7.930;2022-07-01T12:34:57;23.90;99.90
14099;DHT22;7126;48.458;7.930;2022-07-01T12:37:30;24.30;99.90
14099;DHT22;7126;48.458;7.930;2022-07-01T12:42:37;24.70;99.90
14099;DHT22;7126;48.458;7.930;2022-07-01T12:45:09;24.50;99.90
14099;DHT22;7126;48.458;7.930;2022-07-01T12:47:36;24.70;99.90
14099;DHT22;7126;48.458;7.930;2022-07-01T12:52:38;25.10;99.90
14099;DHT22;7126;48.458;7.930;2022-07-01T12:55:17;25.00;99.90
14099;DHT22;7126;48.458;7.930;2022-07-01T12:57:45;24.70;99.90
14099;DHT22;7126;48.458;7.930;2022-07-01T13:00:11;23.90;99.90
14099;DHT22;7126;48.458;7.930;2022-07-01T13:02:37;23.40;99.90
14099;DHT22;7126;48.458;7.930;2022-07-01T13:05:02;23.00;99.90
14099;DHT22;7126;48.458;7.930;2022-07-01T13:07:28;22.70;99.90
14099;DHT22;7126;48.458;7.930;2022-07-01T13:09:54;22.60;99.90
14099;DHT22;7126;48.458;7.930;2022-07-01T13:12:19;22.60;99.90
14099;DHT22;7126;48.458;7.930;2022-07-01T13:14:45;22.40;99.90
14099;DHT22;7126;48.458;7.930;2022-07-01T13:17:10;22.30;99.90
14099;DHT22;7126;48.458;7.930;2022-07-01T13:19:36;22.40;99.90
14099;DHT22;7126;48.458;7.930;2022-07-01T13:22:04;22.40;99.90
14099;DHT22;7126;48.458;7.930;2022-07-01T13:24:30;22.30;99.90
14099;DHT22;7126;48.458;7.930;2022-07-01T13:26:56;22.40;99.90
14099;DHT22;7126;48.458;7.930;2022-07-01T13:29:22;22.40;99.90
14099;DHT22;7126;48.458;7.930;2022-07-01T13:31:48;22.40;99.90
14099;DHT22;7126;48.458;7.930;2022-07-01T13:34:14;22.50;99.90
14099;DHT22;7126;48.458;7.930;2022-07-01T13:36:39;22.50;99.90
14099;DHT22;7126;48.458;7.930;2022-07-01T13:39:05;22.60;99.90
14099;DHT22;7126;48.458;7.930;2022-07-01T13:41:30;22.70;99.90
14099;DHT22;7126;48.458;7.930;2022-07-01T13:43:56;22.70;99.90
14099;DHT22;7126;48.458;7.930;2022-07-01T13:46:22;22.70;99.90
14099;DHT22;7126;48.458;7.930;2022-07-01T13:48:47;22.70;99.90
14099;DHT22;7126;48.458;7.930;2022-07-01T13:51:13;22.60;99.90
14099;DHT22;7126;48.458;7.930;2022-07-01T13:53:38;22.70;99.90
14099;DHT22;7126;48.458;7.930;2022-07-01T13:56:04;22.60;99.90
14099;DHT22;7126;48.458;7.930;2022-07-01T13:58:30;22.60;99.90
14099;DHT22;7126;48.458;7.930;2022-07-01T14:00:55;22.70;99.90
14099;DHT22;7126;48.458;7.930;2022-07-01T14:03:21;22.60;99.90
14099;DHT22;7126;48.458;7.930;2022-07-01T14:05:48;22.60;99.90
14099;DHT22;7126;48.458;7.930;2022-07-01T14:08:14;22.40;99.90
14099;DHT22;7126;48.458;7.930;2022-07-01T14:10:41;22.40;99.90
14099;DHT22;7126;48.458;7.930;2022-07-01T14:13:07;22.30;99.90
14099;DHT22;7126;48.458;7.930;2022-07-01T14:15:32;22.20;99.90
14099;DHT22;7126;48.458;7.930;2022-07-01T14:17:58;22.10;99.90
14099;DHT22;7126;48.458;7.930;2022-07-01T14:20:23;22.00;99.90
14099;DHT22;7126;48.458;7.930;2022-07-01T14:22:49;22.00;99.90
14099;DHT22;7126;48.458;7.930;2022-07-01T14:25:15;21.90;99.90
14099;DHT22;7126;48.458;7.930;2022-07-01T14:27:41;21.80;99.90
14099;DHT22;7126;48.458;7.930;2022-07-01T14:30:07;21.80;99.90
14099;DHT22;7126;48.458;7.930;2022-07-01T14:32:35;21.70;99.90
14099;DHT22;7126;48.458;7.930;2022-07-01T14:35:01;21.60;99.90
14099;DHT22;7126;48.458;7.930;2022-07-01T14:37:28;21.60;99.90
14099;DHT22;7126;48.458;7.930;2022-07-01T14:39:53;21.60;99.90
14099;DHT22;7126;48.458;7.930;2022-07-01T14:42:21;21.60;99.90
14099;DHT22;7126;48.458;7.930;2022-07-01T14:44:47;21.50;99.90
14099;DHT22;7126;48.458;7.930;2022-07-01T14:47:15;21.50;99.90
14099;DHT22;7126;48.458;7.930;2022-07-01T14:49:40;21.50;99.90
14099;DHT22;7126;48.458;7.930;2022-07-01T14:52:06;21.50;99.90
14099;DHT22;7126;48.458;7.930;2022-07-01T14:54:32;21.40;99.90
14099;DHT22;7126;48.458;7.930;2022-07-01T14:56:57;21.40;99.90
14099;DHT22;7126;48.458;7.930;2022-07-01T14:59:23;21.30;99.90
14099;DHT22;7126;48.458;7.930;2022-07-01T15:01:49;21.30;99.90
14099;DHT22;7126;48.458;7.930;2022-07-01T15:04:14;21.30;99.90
14099;DHT22;7126;48.458;7.930;2022-07-01T15:06:40;21.10;99.90
14099;DHT22;7126;48.458;7.930;2022-07-01T15:09:06;21.10;99.90
14099;DHT22;7126;48.458;7.930;2022-07-01T15:11:31;21.00;99.90
14099;DHT22;7126;48.458;7.930;2022-07-01T15:13:58;21.00;99.90
14099;DHT22;7126;48.458;7.930;2022-07-01T15:16:24;21.00;99.90
14099;DHT22;7126;48.458;7.930;2022-07-01T15:18:51;21.00;99.90
14099;DHT22;7126;48.458;7.930;2022-07-01T15:21:17;21.00;99.90
14099;DHT22;7126;48.458;7.930;2022-07-01T15:23:43;21.00;99.90
14099;DHT22;7126;48.458;7.930;2022-07-01T15:26:08;21.10;99.90
14099;DHT22;7126;48.458;7.930;2022-07-01T15:28:34;21.20;99.90
14099;DHT22;7126;48.458;7.930;2022-07-01T15:31:00;21.50;99.90
14099;DHT22;7126;48.458;7.930;2022-07-01T15:33:26;21.70;99.90
14099;DHT22;7126;48.458;7.930;2022-07-01T15:35:52;22.00;99.90
14099;DHT22;7126;48.458;7.930;2022-07-01T15:38:17;22.20;99.90
14099;DHT22;7126;48.458;7.930;2022-07-01T15:40:43;22.30;99.90
14099;DHT22;7126;48.458;7.930;2022-07-01T15:43:08;22.30;99.90
14099;DHT22;7126;48.458;7.930;2022-07-01T15:45:35;22.30;99.90
14099;DHT22;7126;48.458;7.930;2022-07-01T15:48:00;22.30;99.90
14099;DHT22;7126;48.458;7.930;2022-07-01T15:50:33;22.20;99.90
14099;DHT22;7126;48.458;7.930;2022-07-01T15:52:59;22.50;99.90
14099;DHT22;7126;48.458;7.930;2022-07-01T15:55:25;22.60;99.90
14099;DHT22;7126;48.458;7.930;2022-07-01T15:57:50;22.50;99.90
14099;DHT22;7126;48.458;7.930;2022-07-01T16:00:18;22.60;99.90
14099;DHT22;7126;48.458;7.930;2022-07-01T16:02:45;22.60;99.90
14099;DHT22;7126;48.458;7.930;2022-07-01T16:05:11;22.70;99.90
14099;DHT22;7126;48.458;7.930;2022-07-01T16:07:38;22.60;99.90
14099;DHT22;7126;48.458;7.930;2022-07-01T16:10:08;22.40;99.90
14099;DHT22;7126;48.458;7.930;2022-07-01T16:12:35;22.40;99.90
14099;DHT22;7126;48.458;7.930;2022-07-01T16:15:04;22.50;99.90
14099;DHT22;7126;48.458;7.930;2022-07-01T16:17:34;22.60;99.90
14099;DHT22;7126;48.458;7.930;2022-07-01T16:20:03;22.60;99.90
14099;DHT22;7126;48.458;7.930;2022-07-01T16:22:32;22.50;99.90
14099;DHT22;7126;48.458;7.930;2022-07-01T16:24:58;22.50;99.90